Time;durP1;ratioP1;P1;durP2;ratioP2;P2;SDS_P1;SDS_P2;PMS_P1;PMS_P2;Temp;Humidity;BMP_temperature;BMP_pressure;BME280_temperature;BME280_humidity;BME280_pressure;Samples;Min_cycle;Max_cycle;Signal;HPM_P1;HPM_P2
2021/08/02 00:01:27;;;;;;;2.53;2.33;;;18.30;1.00;;;;;;5133814;27;20433;-55
2021/08/02 00:04:08;;;;;;;2.60;2.40;;;18.30;1.00;;;;;;5125373;27;20484;-54
2021/08/02 00:06:48;;;;;;;3.30;2.37;;;18.20;1.00;;;;;;5110779;27;20498;-55
2021/08/02 00:09:21;;;;;;;5.77;2.30;;;18.20;1.00;;;;;;5125284;27;20545;-55
2021/08/02 00:12:00;;;;;;;3.00;2.70;;;18.20;1.00;;;;;;5124433;27;20451;-55
2021/08/02 00:14:26;;;;;;;3.57;2.60;;;18.10;1.00;;;;;;5128470;27;21393;-56
2021/08/02 00:16:52;;;;;;;4.50;3.00;;;18.00;1.00;;;;;;5128062;27;20530;-54
2021/08/02 00:19:19;;;;;;;2.90;2.70;;;18.00;1.00;;;;;;5128128;27;20462;-54
2021/08/02 00:21:46;;;;;;;4.00;2.93;;;18.00;1.00;;;;;;5127297;27;20511;-53
2021/08/02 00:24:12;;;;;;;3.47;3.00;;;18.00;1.00;;;;;;5125423;27;20796;-55
2021/08/02 00:26:39;;;;;;;3.30;2.73;;;18.00;1.00;;;;;;5128005;27;20439;-54
2021/08/02 00:29:06;;;;;;;3.50;2.87;;;18.00;1.00;;;;;;5127177;27;20520;-54
2021/08/02 00:31:32;;;;;;;3.90;2.93;;;18.00;1.00;;;;;;5142239;27;20839;-55
2021/08/02 00:33:58;;;;;;;3.00;2.80;;;17.90;1.00;;;;;;5125726;27;20435;-54
2021/08/02 00:36:32;;;;;;;4.50;2.63;;;17.90;1.00;;;;;;5129931;27;20912;-55
2021/08/02 00:39:09;;;;;;;6.53;3.53;;;17.80;1.00;;;;;;5128980;27;20208;-54
2021/08/02 00:42:06;;;;;;;3.20;2.90;;;17.90;1.00;;;;;;5131885;27;20437;-54
2021/08/02 00:45:01;;;;;;;5.27;2.90;;;17.90;1.00;;;;;;5129077;27;20436;-54
2021/08/02 00:47:32;;;;;;;3.77;2.57;;;18.10;1.00;;;;;;5123547;27;20603;-55
2021/08/02 00:50:05;;;;;;;4.07;3.07;;;18.00;1.00;;;;;;5132357;27;20442;-55
2021/08/02 00:52:33;;;;;;;2.87;2.67;;;18.00;1.00;;;;;;5133939;27;20989;-55
2021/08/02 00:55:00;;;;;;;3.13;2.83;;;18.00;1.00;;;;;;5096971;27;20491;-55
2021/08/02 00:57:30;;;;;;;3.53;3.23;;;18.00;1.00;;;;;;5133742;27;20795;-54
2021/08/02 00:59:59;;;;;;;3.60;2.70;;;18.00;1.00;;;;;;5133105;27;20442;-55
2021/08/02 01:02:26;;;;;;;3.33;2.80;;;18.10;1.00;;;;;;5132146;27;20468;-54
2021/08/02 01:04:54;;;;;;;3.00;2.80;;;18.20;1.00;;;;;;5128514;27;20447;-55
2021/08/02 01:07:21;;;;;;;2.80;2.60;;;18.40;1.00;;;;;;5134427;27;20513;-53
2021/08/02 01:09:48;;;;;;;3.53;3.20;;;18.40;1.00;;;;;;5131706;27;20443;-55
2021/08/02 01:12:14;;;;;;;4.13;3.20;;;18.40;1.00;;;;;;5130173;27;20458;-53
2021/08/02 01:14:41;;;;;;;4.10;3.20;;;18.30;1.00;;;;;;5123723;27;21008;-56
2021/08/02 01:17:08;;;;;;;3.17;2.87;;;18.50;1.00;;;;;;5131590;27;20450;-54
2021/08/02 01:19:34;;;;;;;4.03;3.20;;;18.60;1.00;;;;;;5129807;27;20434;-54
2021/08/02 01:22:00;;;;;;;3.50;3.20;;;18.50;1.00;;;;;;5132136;27;20469;-55
2021/08/02 01:24:27;;;;;;;4.10;2.90;;;18.50;1.00;;;;;;5129146;27;20956;-55
2021/08/02 01:26:58;;;;;;;3.97;3.33;;;18.60;1.00;;;;;;5131449;27;20787;-55
2021/08/02 01:30:01;;;;;;;4.53;3.20;;;18.60;1.00;;;;;;5127987;27;20458;-56
2021/08/02 01:32:27;;;;;;;4.03;3.40;;;18.70;1.00;;;;;;5133847;27;20948;-54
2021/08/02 01:34:53;;;;;;;4.03;3.63;;;18.60;1.00;;;;;;5132876;27;20426;-55
2021/08/02 01:37:18;;;;;;;3.60;3.30;;;18.60;1.00;;;;;;5132652;27;20484;-55
2021/08/02 01:39:53;;;;;;;4.70;3.60;;;18.60;1.00;;;;;;5129484;27;20177;-55
2021/08/02 01:42:19;;;;;;;4.43;3.70;;;18.60;1.00;;;;;;5125265;27;20199;-55
2021/08/02 01:44:44;;;;;;;5.10;4.13;;;18.60;1.00;;;;;;5129108;27;20439;-55
2021/08/02 01:47:15;;;;;;;5.90;3.50;;;18.70;1.00;;;;;;5134998;27;20181;-55
2021/08/02 01:49:59;;;;;;;3.93;3.53;;;18.60;1.00;;;;;;5131258;27;20182;-54
2021/08/02 01:52:31;;;;;;;3.97;3.57;;;18.70;1.00;;;;;;5129325;27;20457;-54
2021/08/02 01:55:06;;;;;;;4.10;3.70;;;18.60;1.00;;;;;;5130302;27;20428;-55
2021/08/02 01:57:59;;;;;;;3.33;3.03;;;18.70;1.00;;;;;;5133312;27;20453;-55
2021/08/02 02:00:25;;;;;;;4.03;3.47;;;18.60;1.00;;;;;;5131569;27;20471;-54
2021/08/02 02:02:58;;;;;;;3.57;3.27;;;18.50;1.00;;;;;;5131005;27;20931;-55
2021/08/02 02:05:30;;;;;;;2.90;2.70;;;18.30;1.00;;;;;;5129524;27;20533;-55
2021/08/02 02:08:07;;;;;;;3.83;3.53;;;18.30;1.00;;;;;;5130316;27;20485;-55
2021/08/02 02:10:38;;;;;;;5.53;3.47;;;18.30;1.00;;;;;;5131635;27;20441;-55
2021/08/02 02:13:08;;;;;;;4.57;3.80;;;18.30;1.00;;;;;;5129160;27;20436;-56
2021/08/02 02:15:35;;;;;;;4.47;3.43;;;18.30;1.00;;;;;;5128742;27;20444;-54
2021/08/02 02:18:02;;;;;;;4.07;3.67;;;18.20;1.00;;;;;;5131451;27;20482;-55
2021/08/02 02:20:31;;;;;;;3.53;3.10;;;18.10;1.00;;;;;;5132404;27;20473;-55
2021/08/02 02:22:57;;;;;;;4.30;3.60;;;18.20;1.00;;;;;;5130614;27;20497;-54
2021/08/02 02:25:23;;;;;;;4.93;3.83;;;18.10;1.00;;;;;;5132759;27;20842;-54
2021/08/02 02:27:48;;;;;;;3.47;3.17;;;18.10;1.00;;;;;;5123425;27;20454;-54
2021/08/02 02:30:14;;;;;;;3.63;3.00;;;18.00;1.00;;;;;;5132527;27;20487;-55
2021/08/02 02:32:43;;;;;;;3.17;2.97;;;18.00;1.00;;;;;;5131531;27;20189;-55
2021/08/02 02:35:09;;;;;;;3.93;3.17;;;18.00;1.00;;;;;;5130918;27;20178;-56
2021/08/02 02:37:35;;;;;;;3.37;3.07;;;17.90;1.00;;;;;;5131944;27;20438;-55
2021/08/02 02:40:04;;;;;;;3.77;3.40;;;18.00;1.00;;;;;;5129295;27;20451;-54
2021/08/02 02:42:31;;;;;;;5.17;3.27;;;18.10;1.00;;;;;;5131556;27;20450;-55
2021/08/02 02:44:57;;;;;;;7.23;3.53;;;18.20;1.00;;;;;;5131222;27;20514;-55
2021/08/02 02:47:25;;;;;;;3.30;3.00;;;18.30;1.00;;;;;;5124376;27;20453;-55
2021/08/02 02:49:51;;;;;;;3.67;3.07;;;18.30;1.00;;;;;;5126186;27;20457;-55
2021/08/02 02:52:17;;;;;;;3.27;2.90;;;18.10;1.00;;;;;;5131654;27;21058;-55
2021/08/02 02:54:48;;;;;;;3.37;3.07;;;18.10;1.00;;;;;;5131720;27;20525;-55
2021/08/02 02:57:14;;;;;;;2.90;2.70;;;18.00;1.00;;;;;;5109368;27;20450;-55
2021/08/02 02:59:39;;;;;;;3.23;2.93;;;18.10;1.00;;;;;;5130542;27;20435;-55
2021/08/02 03:02:06;;;;;;;3.17;2.87;;;18.20;1.00;;;;;;5111528;27;20173;-54
2021/08/02 03:04:36;;;;;;;3.40;3.10;;;18.10;1.00;;;;;;5132039;27;20238;-55
2021/08/02 03:07:03;;;;;;;3.27;2.97;;;18.00;1.00;;;;;;5118785;27;20444;-54
2021/08/02 03:09:34;;;;;;;3.60;3.30;;;18.00;1.00;;;;;;5131274;27;20467;-55
2021/08/02 03:12:00;;;;;;;3.13;2.80;;;18.00;1.00;;;;;;5129913;27;20453;-54
2021/08/02 03:14:26;;;;;;;4.37;2.93;;;18.10;1.00;;;;;;5131233;27;20928;-54
2021/08/02 03:16:52;;;;;;;3.47;3.17;;;18.20;1.00;;;;;;5127009;27;20201;-56
2021/08/02 03:19:17;;;;;;;4.53;3.13;;;18.20;1.00;;;;;;5128563;27;20445;-54
2021/08/02 03:21:43;;;;;;;2.83;2.53;;;18.20;1.00;;;;;;5131381;27;20181;-55
2021/08/02 03:24:20;;;;;;;5.87;3.20;;;18.30;1.00;;;;;;5112987;27;20196;-54
2021/08/02 03:27:14;;;;;;;3.53;3.00;;;18.30;1.00;;;;;;5131761;27;20193;-55
2021/08/02 03:29:46;;;;;;;3.57;3.27;;;18.30;1.00;;;;;;5116392;27;20508;-54
2021/08/02 03:32:15;;;;;;;3.07;2.77;;;18.30;1.00;;;;;;5125893;27;20439;-55
2021/08/02 03:34:43;;;;;;;3.70;2.60;;;18.40;1.00;;;;;;5126270;27;20805;-54
2021/08/02 03:37:11;;;;;;;3.60;3.30;;;18.40;1.00;;;;;;5118290;27;20480;-53
2021/08/02 03:39:38;;;;;;;3.23;2.90;;;18.50;1.00;;;;;;5131047;27;20918;-54
2021/08/02 03:42:05;;;;;;;3.30;2.87;;;18.50;1.00;;;;;;5129642;27;20962;-54
2021/08/02 03:44:32;;;;;;;3.80;2.83;;;18.60;1.00;;;;;;5130992;27;20784;-54
2021/08/02 03:46:58;;;;;;;3.37;3.07;;;18.60;1.00;;;;;;5125327;27;20447;-54
2021/08/02 03:49:23;;;;;;;3.43;3.13;;;18.60;1.00;;;;;;5134079;27;20470;-54
2021/08/02 03:51:55;;;;;;;4.30;3.10;;;18.60;1.00;;;;;;5131061;27;20431;-54
2021/08/02 03:54:22;;;;;;;4.10;3.70;;;18.70;1.00;;;;;;5121881;27;20331;-54
2021/08/02 03:56:48;;;;;;;5.00;2.77;;;18.50;1.00;;;;;;5130437;27;20762;-54
2021/08/02 03:59:13;;;;;;;3.23;3.03;;;18.50;1.00;;;;;;5126395;27;20444;-55
2021/08/02 04:01:44;;;;;;;3.70;3.13;;;18.50;1.00;;;;;;5129270;27;20439;-54
2021/08/02 04:04:10;;;;;;;3.07;2.77;;;18.60;1.00;;;;;;5127124;27;20568;-57
2021/08/02 04:06:37;;;;;;;3.17;2.97;;;18.60;1.00;;;;;;5126469;27;20439;-55
2021/08/02 04:09:04;;;;;;;4.60;3.17;;;18.60;1.00;;;;;;5131643;27;20227;-56
2021/08/02 04:11:30;;;;;;;3.70;3.40;;;18.50;1.00;;;;;;5130375;27;20427;-55
2021/08/02 04:13:55;;;;;;;3.97;3.57;;;18.40;1.00;;;;;;5127601;27;20427;-57
2021/08/02 04:16:21;;;;;;;7.30;3.83;;;18.40;1.00;;;;;;5144048;27;20176;-55
2021/08/02 04:18:46;;;;;;;4.20;3.10;;;18.00;1.00;;;;;;5137569;27;20192;-56
2021/08/02 04:21:12;;;;;;;5.90;4.03;;;17.80;1.00;;;;;;5138147;27;20673;-55
2021/08/02 04:23:38;;;;;;;3.73;3.20;;;17.70;1.00;;;;;;5117487;27;20185;-57
2021/08/02 04:26:04;;;;;;;6.40;5.13;;;17.70;1.00;;;;;;5137522;27;20631;-56
2021/08/02 04:28:30;;;;;;;4.77;3.73;;;17.70;1.00;;;;;;5132429;27;20201;-56
2021/08/02 04:30:56;;;;;;;5.30;4.80;;;17.70;1.00;;;;;;5136890;27;20442;-54
2021/08/02 04:33:21;;;;;;;5.10;4.17;;;17.70;1.00;;;;;;5132305;27;20189;-54
2021/08/02 04:35:47;;;;;;;4.40;4.00;;;17.80;1.00;;;;;;5114466;27;20177;-54
2021/08/02 04:38:12;;;;;;;8.30;5.07;;;17.90;1.00;;;;;;5113052;27;20570;-53
2021/08/02 04:40:38;;;;;;;4.63;3.90;;;17.90;1.00;;;;;;5140380;27;20509;-53
2021/08/02 04:43:03;;;;;;;4.93;4.53;;;20.10;1.00;;;;;;5158532;27;20275;-53
2021/08/02 04:45:29;;;;;;;6.30;4.97;;;17.90;1.00;;;;;;5141186;27;20180;-56
2021/08/02 04:47:55;;;;;;;4.83;4.30;;;18.10;1.00;;;;;;5137722;27;20201;-55
2021/08/02 04:50:21;;;;;;;4.97;4.50;;;18.00;1.00;;;;;;5137434;27;20235;-54
2021/08/02 04:52:47;;;;;;;7.47;4.77;;;18.10;1.00;;;;;;5131773;27;20282;-55
2021/08/02 04:55:13;;;;;;;4.70;4.30;;;18.00;1.00;;;;;;5111685;27;20427;-54
2021/08/02 04:57:39;;;;;;;4.80;4.40;;;18.00;1.00;;;;;;5134632;27;20525;-53
2021/08/02 05:00:06;;;;;;;5.03;4.53;;;18.10;1.00;;;;;;5132208;27;20434;-56
2021/08/02 05:02:31;;;;;;;5.50;4.30;;;18.20;1.00;;;;;;5132160;27;20534;-54
2021/08/02 05:04:57;;;;;;;5.37;4.47;;;18.20;1.00;;;;;;5130664;27;20439;-54
2021/08/02 05:07:22;;;;;;;4.93;4.40;;;18.30;1.00;;;;;;5130077;27;20189;-55
2021/08/02 05:09:48;;;;;;;6.50;4.50;;;18.40;1.00;;;;;;5133997;27;20601;-54
2021/08/02 05:12:14;;;;;;;6.33;4.53;;;18.40;1.00;;;;;;5137237;27;20185;-56
2021/08/02 05:14:39;;;;;;;8.77;5.20;;;18.40;1.00;;;;;;5136761;27;20184;-56
2021/08/02 05:17:07;;;;;;;6.57;5.37;;;18.40;1.00;;;;;;5131822;27;20192;-54
2021/08/02 05:19:32;;;;;;;5.60;4.53;;;18.40;1.00;;;;;;5136557;27;20181;-54
2021/08/02 05:21:58;;;;;;;5.43;4.27;;;18.30;1.00;;;;;;5136443;27;20803;-53
2021/08/02 05:24:23;;;;;;;5.20;4.63;;;18.30;1.00;;;;;;5136394;27;20317;-53
2021/08/02 05:26:49;;;;;;;5.30;4.47;;;18.40;1.00;;;;;;5131624;27;20193;-54
2021/08/02 05:29:15;;;;;;;6.50;4.83;;;18.60;1.00;;;;;;5127595;27;20216;-55
2021/08/02 05:31:40;;;;;;;5.93;5.27;;;18.60;1.00;;;;;;5128869;27;20212;-55
2021/08/02 05:34:06;;;;;;;7.13;5.50;;;18.60;1.00;;;;;;5133197;27;20518;-55
2021/08/02 05:36:31;;;;;;;5.70;5.20;;;18.60;1.00;;;;;;5134229;27;20181;-54
2021/08/02 05:38:57;;;;;;;8.53;5.23;;;18.60;1.00;;;;;;5127813;27;20189;-55
2021/08/02 05:41:22;;;;;;;8.13;6.20;;;18.60;1.00;;;;;;5133427;27;20185;-54
2021/08/02 05:43:48;;;;;;;6.77;6.00;;;18.60;1.00;;;;;;5131369;27;20229;-54
2021/08/02 05:46:14;;;;;;;6.80;6.10;;;18.50;1.00;;;;;;5128451;27;20286;-54
2021/08/02 05:48:39;;;;;;;7.60;6.80;;;18.40;1.00;;;;;;5127968;27;20201;-55
2021/08/02 05:51:05;;;;;;;8.73;7.27;;;18.50;1.00;;;;;;5133625;27;20213;-55
2021/08/02 05:53:30;;;;;;;8.63;7.23;;;18.50;1.00;;;;;;5128410;27;20217;-55
2021/08/02 05:55:56;;;;;;;11.60;7.50;;;18.60;1.00;;;;;;5133111;27;20264;-53
2021/08/02 05:58:21;;;;;;;7.13;6.43;;;18.80;1.00;;;;;;5128158;27;20197;-53
2021/08/02 06:00:47;;;;;;;7.90;7.10;;;18.90;1.00;;;;;;5126726;27;20194;-56
2021/08/02 06:03:12;;;;;;;8.20;7.40;;;20.10;1.00;;;;;;5132045;27;20177;-55
2021/08/02 06:05:38;;;;;;;7.97;7.17;;;19.20;1.00;;;;;;5132667;27;20170;-54
2021/08/02 06:08:04;;;;;;;7.73;7.03;;;19.50;1.00;;;;;;5132399;27;20228;-54
2021/08/02 06:10:29;;;;;;;8.20;7.40;;;19.60;1.00;;;;;;5127016;27;20169;-54
2021/08/02 06:12:55;;;;;;;7.53;6.83;;;19.60;1.00;;;;;;5125768;27;20234;-54
2021/08/02 06:15:20;;;;;;;7.00;6.30;;;19.60;1.00;;;;;;5131258;27;20186;-55
2021/08/02 06:17:46;;;;;;;7.73;6.73;;;19.80;1.00;;;;;;5130248;27;20686;-52
2021/08/02 06:20:12;;;;;;;8.00;7.27;;;20.00;1.00;;;;;;5126611;27;20182;-55
2021/08/02 06:22:38;;;;;;;9.37;7.13;;;20.00;1.00;;;;;;5113501;27;20189;-54
2021/08/02 06:25:04;;;;;;;8.10;7.30;;;20.10;1.00;;;;;;5132175;27;20442;-55
2021/08/02 06:27:31;;;;;;;8.87;7.90;;;19.80;1.00;;;;;;5127273;27;20196;-55
2021/08/02 06:29:58;;;;;;;8.70;7.80;;;19.70;1.00;;;;;;5128307;27;20434;-54
2021/08/02 06:32:24;;;;;;;8.00;7.30;;;19.50;1.00;;;;;;5131877;27;20457;-55
2021/08/02 06:34:49;;;;;;;9.47;8.43;;;19.50;1.00;;;;;;5128901;27;20434;-53
2021/08/02 06:37:15;;;;;;;12.30;10.37;;;19.50;1.00;;;;;;5131683;27;20465;-55
2021/08/02 06:39:41;;;;;;;10.67;9.67;;;19.60;1.00;;;;;;5131843;27;20224;-54
2021/08/02 06:42:06;;;;;;;12.50;11.17;;;19.40;1.00;;;;;;5131688;27;20662;-54
2021/08/02 06:44:32;;;;;;;12.73;11.50;;;19.50;1.00;;;;;;5131876;27;20446;-54
2021/08/02 06:46:57;;;;;;;13.30;11.90;;;19.50;1.00;;;;;;5130585;27;20272;-54
2021/08/02 06:49:23;;;;;;;14.20;12.80;;;19.30;1.00;;;;;;5129183;27;20209;-53
2021/08/02 06:51:48;;;;;;;12.50;11.30;;;19.30;1.00;;;;;;5130247;27;20181;-55
2021/08/02 06:54:14;;;;;;;13.70;12.40;;;19.40;1.00;;;;;;5112959;27;20213;-54
2021/08/02 06:56:41;;;;;;;14.17;12.00;;;19.30;1.00;;;;;;5126907;27;20598;-56
2021/08/02 06:59:06;;;;;;;14.17;11.73;;;19.50;1.00;;;;;;5129913;27;20222;-54
2021/08/02 07:01:32;;;;;;;13.23;12.00;;;19.30;1.00;;;;;;5131658;27;20835;-54
2021/08/02 07:03:57;;;;;;;12.90;11.57;;;19.30;1.00;;;;;;5132379;27;20182;-55
2021/08/02 07:06:23;;;;;;;13.40;12.03;;;19.40;1.00;;;;;;5125283;27;20192;-55
2021/08/02 07:08:48;;;;;;;16.70;13.30;;;19.60;1.00;;;;;;5129236;27;20244;-54
2021/08/02 07:11:14;;;;;;;13.03;11.77;;;19.80;1.00;;;;;;5135125;27;20348;-54
2021/08/02 07:13:39;;;;;;;13.23;11.87;;;19.90;1.00;;;;;;5130421;27;20185;-55
2021/08/02 07:16:05;;;;;;;10.90;9.90;;;19.70;1.00;;;;;;5146138;27;20217;-53
2021/08/02 07:18:31;;;;;;;12.67;11.40;;;19.70;1.00;;;;;;5129171;27;20185;-55
2021/08/02 07:20:57;;;;;;;11.47;10.37;;;19.60;1.00;;;;;;5138985;27;20655;-54
2021/08/02 07:23:22;;;;;;;12.83;11.73;;;19.60;1.00;;;;;;5127065;27;20431;-55
2021/08/02 07:25:48;;;;;;;13.30;12.10;;;19.70;1.00;;;;;;5109195;27;20185;-53
2021/08/02 07:28:14;;;;;;;13.20;12.00;;;19.70;1.00;;;;;;5123540;27;20197;-53
2021/08/02 07:30:40;;;;;;;13.60;12.40;;;19.60;1.00;;;;;;5128900;27;20638;-54
2021/08/02 07:33:06;;;;;;;14.03;12.63;;;19.60;1.00;;;;;;5128045;27;20222;-56
2021/08/02 07:35:31;;;;;;;17.00;15.50;;;19.70;1.00;;;;;;5129430;27;20431;-55
2021/08/02 07:37:57;;;;;;;15.20;13.80;;;19.20;1.00;;;;;;5130921;27;20654;-54
2021/08/02 07:40:22;;;;;;;15.10;13.80;;;19.00;1.00;;;;;;5131396;27;20181;-55
2021/08/02 07:42:48;;;;;;;13.20;12.10;;;18.80;1.00;;;;;;5129568;27;20189;-54
2021/08/02 07:45:14;;;;;;;14.40;13.00;;;18.60;1.00;;;;;;5131703;27;20181;-55
2021/08/02 07:47:40;;;;;;;12.90;11.80;;;18.60;1.00;;;;;;5126263;27;20208;-56
2021/08/02 07:50:07;;;;;;;13.90;12.60;;;18.80;1.00;;;;;;5129673;27;20691;-56
2021/08/02 07:52:32;;;;;;;12.50;11.40;;;18.80;1.00;;;;;;5125213;27;20462;-55
2021/08/02 07:55:00;;;;;;;11.90;10.73;;;18.80;1.00;;;;;;5130142;27;20808;-54
2021/08/02 07:57:26;;;;;;;12.10;10.90;;;18.90;1.00;;;;;;5111626;27;20532;-55
2021/08/02 07:59:52;;;;;;;12.27;11.07;;;18.80;1.00;;;;;;5130669;27;20529;-55
2021/08/02 08:02:17;;;;;;;5.57;5.07;;;18.80;1.00;;;;;;5128145;27;20268;-54
2021/08/02 08:04:43;;;;;;;3.83;3.53;;;18.50;1.00;;;;;;5129651;27;20935;-56
2021/08/02 08:07:08;;;;;;;5.53;2.83;;;18.40;1.00;;;;;;5126965;27;20205;-54
2021/08/02 08:09:34;;;;;;;3.27;2.47;;;18.30;1.00;;;;;;5126857;27;20213;-55
2021/08/02 08:12:00;;;;;;;2.93;2.73;;;18.10;1.00;;;;;;5126962;27;20209;-54
2021/08/02 08:14:25;;;;;;;2.93;2.67;;;18.30;1.00;;;;;;5126596;27;20181;-56
2021/08/02 08:16:51;;;;;;;3.10;2.77;;;18.20;1.00;;;;;;5128896;27;20184;-57
2021/08/02 08:19:17;;;;;;;2.90;2.70;;;18.40;1.00;;;;;;5124881;27;20186;-56
2021/08/02 08:21:43;;;;;;;3.20;2.67;;;18.50;1.00;;;;;;5128082;27;21005;-53
2021/08/02 08:24:08;;;;;;;4.00;3.17;;;18.60;1.00;;;;;;5132001;27;20182;-54
2021/08/02 08:26:37;;;;;;;3.77;2.93;;;18.60;1.00;;;;;;5132032;27;20624;-56
2021/08/02 08:29:04;;;;;;;3.20;3.00;;;18.50;1.00;;;;;;5127647;27;20205;-56
2021/08/02 08:31:29;;;;;;;3.00;2.80;;;18.40;1.00;;;;;;5126067;27;20449;-53
2021/08/02 08:33:56;;;;;;;3.40;3.10;;;18.40;1.00;;;;;;5137895;27;20510;-54
2021/08/02 08:36:22;;;;;;;4.47;3.23;;;18.60;1.00;;;;;;5132002;27;20683;-55
2021/08/02 08:38:48;;;;;;;4.40;4.00;;;18.40;1.00;;;;;;5130781;27;20576;-53
2021/08/02 08:41:20;;;;;;;3.70;3.40;;;18.40;1.00;;;;;;5131223;27;20630;-55
2021/08/02 08:43:50;;;;;;;3.03;2.83;;;18.30;1.00;;;;;;5130918;27;20201;-54
2021/08/02 08:46:18;;;;;;;3.90;3.30;;;18.30;1.00;;;;;;5130737;27;20514;-55
2021/08/02 08:48:44;;;;;;;4.13;2.63;;;18.40;1.00;;;;;;5129674;27;20462;-55
2021/08/02 08:51:12;;;;;;;2.90;2.50;;;18.90;1.00;;;;;;5131147;27;20924;-55
2021/08/02 08:53:38;;;;;;;3.43;3.13;;;19.10;1.00;;;;;;5130865;27;20303;-54
2021/08/02 08:56:03;;;;;;;3.20;2.60;;;19.50;1.00;;;;;;5130529;27;20470;-53
2021/08/02 08:58:29;;;;;;;2.30;2.10;;;19.60;1.00;;;;;;5129626;27;20643;-53
2021/08/02 09:00:59;;;;;;;3.87;2.80;;;19.80;1.00;;;;;;5130656;27;20439;-53
2021/08/02 09:03:24;;;;;;;2.87;2.50;;;20.00;1.00;;;;;;5133732;27;20201;-53
2021/08/02 09:06:00;;;;;;;3.07;2.87;;;20.10;1.00;;;;;;5134601;27;20461;-55
2021/08/02 09:08:26;;;;;;;2.57;2.37;;;20.20;1.00;;;;;;5134423;27;20192;-54
2021/08/02 09:11:00;;;;;;;2.37;2.17;;;20.10;1.00;;;;;;5139461;27;20429;-54
2021/08/02 09:13:33;;;;;;;3.53;2.30;;;20.40;1.00;;;;;;5155276;27;20404;-55
2021/08/02 09:16:28;;;;;;;2.63;2.43;;;20.60;1.00;;;;;;5151900;27;20434;-53
2021/08/02 09:18:58;;;;;;;3.23;2.43;;;20.70;1.00;;;;;;5134383;27;20437;-54
2021/08/02 09:21:25;;;;;;;2.60;2.40;;;20.80;1.00;;;;;;5131184;27;20467;-55
2021/08/02 09:23:53;;;;;;;2.57;2.37;;;21.00;1.00;;;;;;5134118;27;20464;-53
2021/08/02 09:26:32;;;;;;;3.20;2.57;;;21.00;1.00;;;;;;5146481;27;20922;-54
2021/08/02 09:28:58;;;;;;;2.73;2.53;;;21.10;1.00;;;;;;5154952;27;20596;-54
2021/08/02 09:31:45;;;;;;;2.90;2.70;;;21.30;1.00;;;;;;5154803;27;20437;-55
2021/08/02 09:34:11;;;;;;;3.33;3.03;;;21.60;1.00;;;;;;5154905;27;20192;-54
2021/08/02 09:36:42;;;;;;;3.47;2.63;;;21.80;1.00;;;;;;5154341;27;20483;-54
2021/08/02 09:39:13;;;;;;;3.63;2.93;;;21.90;1.00;;;;;;5154569;27;20223;-54
2021/08/02 09:41:39;;;;;;;3.37;2.53;;;21.90;1.00;;;;;;5154486;27;20856;-54
2021/08/02 09:44:06;;;;;;;3.13;2.83;;;21.90;1.00;;;;;;5132644;27;20534;-54
2021/08/02 09:46:32;;;;;;;3.10;2.90;;;21.80;1.00;;;;;;5133774;27;20184;-56
2021/08/02 09:49:03;;;;;;;3.13;2.93;;;21.90;1.00;;;;;;5133726;27;20461;-54
2021/08/02 09:51:42;;;;;;;3.10;2.70;;;22.00;1.00;;;;;;5122006;27;20483;-56
2021/08/02 09:54:08;;;;;;;2.87;2.67;;;22.10;1.00;;;;;;5136255;27;20434;-55
2021/08/02 09:56:35;;;;;;;3.40;2.67;;;22.10;1.00;;;;;;5133577;27;20450;-53
2021/08/02 09:59:01;;;;;;;3.50;2.83;;;22.20;1.00;;;;;;5133631;27;20423;-55
2021/08/02 10:01:27;;;;;;;2.60;2.40;;;22.60;1.00;;;;;;5134027;27;20429;-54
2021/08/02 10:03:53;;;;;;;3.10;2.80;;;22.90;1.00;;;;;;5133284;27;20427;-54
2021/08/02 10:06:19;;;;;;;3.37;3.07;;;23.00;1.00;;;;;;5133443;27;20177;-55
2021/08/02 10:08:45;;;;;;;3.40;3.00;;;22.70;1.00;;;;;;5133341;27;20458;-54
2021/08/02 10:11:11;;;;;;;3.60;3.27;;;22.60;1.00;;;;;;5133444;27;20218;-55
2021/08/02 10:13:43;;;;;;;3.30;3.00;;;22.20;1.00;;;;;;5130246;27;20697;-56
2021/08/02 10:16:14;;;;;;;6.50;3.70;;;22.10;1.00;;;;;;5133193;27;20795;-55
2021/08/02 10:18:40;;;;;;;4.23;3.90;;;22.10;1.00;;;;;;5133391;27;20438;-54
2021/08/02 10:21:10;;;;;;;4.33;4.03;;;22.20;1.00;;;;;;5113856;27;20466;-55
2021/08/02 10:23:38;;;;;;;4.97;4.57;;;22.50;1.00;;;;;;5136218;27;20444;-54
2021/08/02 10:26:28;;;;;;;6.03;5.47;;;22.50;1.00;;;;;;5153696;27;20445;-55
2021/08/02 10:28:56;;;;;;;5.40;4.90;;;22.30;1.00;;;;;;5153447;27;20494;-54
2021/08/02 10:31:25;;;;;;;6.27;5.27;;;22.40;1.00;;;;;;5140125;27;20911;-53
2021/08/02 10:33:51;;;;;;;5.20;4.80;;;22.40;1.00;;;;;;5132896;27;20638;-56
2021/08/02 10:36:19;;;;;;;4.80;4.40;;;22.50;1.00;;;;;;5133070;27;20517;-54
2021/08/02 10:38:47;;;;;;;5.33;4.83;;;22.80;1.00;;;;;;5131665;27;20201;-53
2021/08/02 10:41:42;;;;;;;5.83;5.33;;;22.80;1.00;;;;;;5129560;27;20500;-56
2021/08/02 10:44:14;;;;;;;4.63;4.30;;;22.90;1.00;;;;;;5110818;27;20954;-54
2021/08/02 10:46:39;;;;;;;5.27;4.77;;;22.80;1.00;;;;;;5132804;27;20940;-54
2021/08/02 10:49:13;;;;;;;6.30;5.90;;;22.90;1.00;;;;;;5143789;27;20465;-56
2021/08/02 10:51:54;;;;;;;5.80;5.40;;;23.10;1.00;;;;;;5132365;27;20262;-54
2021/08/02 10:54:20;;;;;;;6.23;5.73;;;23.10;1.00;;;;;;5139843;27;20479;-54
2021/08/02 10:56:50;;;;;;;4.97;4.67;;;22.90;1.00;;;;;;5153089;27;20899;-53
2021/08/02 10:59:20;;;;;;;5.63;5.13;;;22.70;1.00;;;;;;5152684;27;20495;-54
2021/08/02 11:01:51;;;;;;;6.00;5.50;;;22.60;1.00;;;;;;5153282;27;20442;-54
2021/08/02 11:04:19;;;;;;;4.93;4.63;;;22.70;1.00;;;;;;5139854;27;20429;-56
2021/08/02 11:06:47;;;;;;;6.27;5.87;;;23.10;1.00;;;;;;5152814;27;20438;-56
2021/08/02 11:09:13;;;;;;;5.30;5.00;;;23.50;1.00;;;;;;5140938;27;20459;-54
2021/08/02 11:11:38;;;;;;;5.30;4.90;;;23.90;1.00;;;;;;5125234;27;20486;-55
2021/08/02 11:14:09;;;;;;;5.80;5.40;;;24.50;1.00;;;;;;5130362;27;20470;-54
2021/08/02 11:16:48;;;;;;;5.63;5.13;;;24.50;1.00;;;;;;5132085;27;20181;-54
2021/08/02 11:19:18;;;;;;;5.30;4.90;;;24.10;1.00;;;;;;5113007;27;20518;-54
2021/08/02 11:21:45;;;;;;;5.67;5.10;;;24.00;1.00;;;;;;5131886;27;20435;-55
2021/08/02 11:24:11;;;;;;;5.67;5.33;;;24.10;1.00;;;;;;5131831;27;20439;-55
2021/08/02 11:26:55;;;;;;;5.70;5.30;;;23.90;1.00;;;;;;5127515;27;20916;-55
2021/08/02 11:29:28;;;;;;;5.97;5.47;;;23.60;1.00;;;;;;5113013;27;20467;-55
2021/08/02 11:31:54;;;;;;;5.53;5.17;;;23.30;1.00;;;;;;5131472;27;20503;-54
2021/08/02 11:34:20;;;;;;;5.87;5.47;;;23.10;1.00;;;;;;5131238;27;20439;-53
2021/08/02 11:36:59;;;;;;;5.90;5.50;;;23.10;1.00;;;;;;5131468;27;20182;-56
2021/08/02 11:39:25;;;;;;;5.20;4.90;;;23.20;1.00;;;;;;5129337;27;20511;-55
2021/08/02 11:42:21;;;;;;;5.23;4.93;;;23.10;1.00;;;;;;5128496;27;20443;-56
2021/08/02 11:44:52;;;;;;;5.00;4.60;;;23.10;1.00;;;;;;5128097;27;20808;-55
2021/08/02 11:47:22;;;;;;;5.00;4.50;;;23.20;1.00;;;;;;5131739;27;20434;-54
2021/08/02 11:49:50;;;;;;;5.10;4.70;;;23.40;1.00;;;;;;5131339;27;20467;-55
2021/08/02 11:52:18;;;;;;;4.53;4.23;;;23.40;1.00;;;;;;5131730;27;20462;-54
2021/08/02 11:54:46;;;;;;;5.10;3.80;;;23.90;1.00;;;;;;5131367;27;20920;-54
2021/08/02 11:57:21;;;;;;;4.53;4.00;;;24.30;1.00;;;;;;5131421;27;20435;-54
2021/08/02 11:59:57;;;;;;;4.90;4.60;;;24.70;1.00;;;;;;5131302;27;20817;-54
2021/08/02 12:02:49;;;;;;;4.20;3.90;;;24.50;1.00;;;;;;5131455;27;20582;-55
2021/08/02 12:05:19;;;;;;;3.83;3.63;;;24.10;1.00;;;;;;5127071;27;20447;-55
2021/08/02 12:07:45;;;;;;;6.50;4.50;;;23.90;1.00;;;;;;5127854;27;20439;-55
2021/08/02 12:10:13;;;;;;;3.90;3.70;;;24.00;1.00;;;;;;5127816;27;20439;-54
2021/08/02 12:12:39;;;;;;;4.57;4.17;;;23.90;1.00;;;;;;5130767;27;20256;-54
2021/08/02 12:15:07;;;;;;;3.97;3.67;;;24.10;1.00;;;;;;5131044;27;20426;-54
2021/08/02 12:17:44;;;;;;;3.67;3.37;;;24.20;1.00;;;;;;5131540;27;20894;-54
2021/08/02 12:20:10;;;;;;;4.43;3.60;;;24.30;1.00;;;;;;5128338;27;20441;-54
2021/08/02 12:22:37;;;;;;;2.20;2.10;;;24.60;1.00;;;;;;5131412;27;20430;-55
2021/08/02 12:25:04;;;;;;;2.77;2.40;;;24.90;1.00;;;;;;5131261;27;20174;-55
2021/08/02 12:27:30;;;;;;;2.83;2.63;;;25.10;1.00;;;;;;5131162;27;20441;-54
2021/08/02 12:30:11;;;;;;;3.63;2.83;;;25.20;1.00;;;;;;5131132;27;20474;-55
2021/08/02 12:32:42;;;;;;;2.70;2.50;;;25.90;1.00;;;;;;5130920;27;20185;-56
2021/08/02 12:35:11;;;;;;;2.93;2.63;;;24.90;1.00;;;;;;5130709;27;20441;-55
2021/08/02 12:37:37;;;;;;;4.53;2.97;;;24.70;1.00;;;;;;5130161;27;20441;-54
2021/08/02 12:40:07;;;;;;;3.10;2.90;;;24.70;1.00;;;;;;5133925;27;20757;-55
2021/08/02 12:42:34;;;;;;;3.13;2.27;;;25.10;1.00;;;;;;5134500;27;20520;-55
2021/08/02 12:44:59;;;;;;;2.53;2.33;;;25.20;1.00;;;;;;5131763;27;20538;-55
2021/08/02 12:47:25;;;;;;;4.53;2.70;;;25.50;1.00;;;;;;5133440;27;20945;-54
2021/08/02 12:49:51;;;;;;;5.90;2.60;;;25.60;1.00;;;;;;5134856;27;20212;-55
2021/08/02 12:52:21;;;;;;;2.80;2.50;;;25.60;1.00;;;;;;5134708;27;20216;-54
2021/08/02 12:54:47;;;;;;;5.63;2.60;;;25.40;1.00;;;;;;5134786;27;20182;-54
2021/08/02 12:57:12;;;;;;;2.67;2.47;;;25.20;1.00;;;;;;5134323;27;20483;-56
2021/08/02 12:59:38;;;;;;;3.30;2.70;;;24.50;1.00;;;;;;5134609;27;20538;-54
2021/08/02 13:02:03;;;;;;;2.70;2.50;;;24.40;1.00;;;;;;5138767;27;20184;-56